createdAt,value
2022-10-14T00:00:11.604Z,15.92
2022-10-14T00:01:11.566Z,15.91
2022-10-14T00:02:11.576Z,15.82
2022-10-14T00:03:11.505Z,15.91
2022-10-14T00:04:11.467Z,15.97
2022-10-14T00:05:11.445Z,15.92
2022-10-14T00:06:11.402Z,15.92
2022-10-14T00:07:11.406Z,15.91
2022-10-14T00:08:11.599Z,15.91
2022-10-14T00:09:11.303Z,15.82
2022-10-14T00:10:11.270Z,15.84
2022-10-14T00:11:11.235Z,15.83
2022-10-14T00:12:11.204Z,15.94
2022-10-14T00:13:11.168Z,15.88
2022-10-14T00:14:11.135Z,15.88
2022-10-14T00:15:11.102Z,15.82
2022-10-14T00:16:11.069Z,15.90
2022-10-14T00:17:12.718Z,15.90
2022-10-14T00:18:11.011Z,15.94
2022-10-14T00:19:11.104Z,15.82
2022-10-14T00:32:06.961Z,15.92
2022-10-14T00:33:06.912Z,15.83
2022-10-14T00:35:10.815Z,15.91
2022-10-14T00:36:10.777Z,15.90
2022-10-14T00:38:14.683Z,15.90
2022-10-14T00:39:14.641Z,15.94
2022-10-14T00:41:18.549Z,15.83
2022-10-14T00:42:18.500Z,15.86
2022-10-14T00:44:22.411Z,15.94
2022-10-14T00:45:22.362Z,15.84
2022-10-14T00:47:26.273Z,15.86
2022-10-14T00:48:26.316Z,15.83
2022-10-14T00:50:30.121Z,15.94
2022-10-14T00:51:30.082Z,15.92
2022-10-14T00:53:33.998Z,15.91
2022-10-14T00:54:33.944Z,15.91
2022-10-14T00:56:37.875Z,15.90
2022-10-14T00:57:37.832Z,15.91
2022-10-14T00:59:41.740Z,15.94
2022-10-14T01:00:41.791Z,15.90
2022-10-14T01:02:34.534Z,15.91
2022-10-14T01:03:34.484Z,15.91
2022-10-14T01:05:38.384Z,15.86
2022-10-14T01:06:38.344Z,15.91
2022-10-14T01:08:42.249Z,15.82
2022-10-14T01:09:42.203Z,15.95
2022-10-14T01:11:46.117Z,15.77
2022-10-14T01:12:46.069Z,15.90
2022-10-14T01:14:49.970Z,15.82
2022-10-14T01:15:49.929Z,15.88
2022-10-14T01:17:53.841Z,15.84
2022-10-14T01:18:53.794Z,15.91
2022-10-14T01:20:57.689Z,15.90
2022-10-14T01:21:57.654Z,15.91
2022-10-14T01:24:01.560Z,15.83
2022-10-14T01:25:01.515Z,15.84
2022-10-14T01:27:05.419Z,15.90
2022-10-14T01:28:05.374Z,15.88
2022-10-14T01:30:09.285Z,15.90
2022-10-14T01:31:09.237Z,15.80
2022-10-14T01:33:02.080Z,15.84
2022-10-14T01:34:02.026Z,15.79
2022-10-14T01:36:05.929Z,15.84
2022-10-14T01:37:05.896Z,15.79
2022-10-14T01:38:05.851Z,15.92
2022-10-14T01:39:05.823Z,15.92
2022-10-14T01:40:05.785Z,15.83
2022-10-14T01:41:05.754Z,15.79
2022-10-14T01:42:05.728Z,15.80
2022-10-14T01:43:05.686Z,15.83
2022-10-14T01:44:05.653Z,15.92
2022-10-14T01:45:05.617Z,15.88
2022-10-14T01:46:05.588Z,15.86
2022-10-14T01:47:05.552Z,15.94
2022-10-14T01:48:05.520Z,15.80
2022-10-14T01:49:05.490Z,15.83
2022-10-14T01:50:05.453Z,15.80
2022-10-14T01:51:05.417Z,15.84
2022-10-14T01:52:05.387Z,15.86
2022-10-14T01:53:05.355Z,15.90
2022-10-14T01:54:05.326Z,15.82
2022-10-14T01:55:05.289Z,15.79
2022-10-14T01:56:05.284Z,15.88
2022-10-14T01:57:05.222Z,15.83
2022-10-14T01:58:05.190Z,15.86
2022-10-14T01:59:05.153Z,15.77
2022-10-14T02:00:05.159Z,15.92
2022-10-14T02:01:05.107Z,15.84
2022-10-14T02:02:05.087Z,15.91
2022-10-14T02:03:05.022Z,15.91
2022-10-14T02:04:04.989Z,15.82
2022-10-14T02:05:04.951Z,15.83
2022-10-14T02:06:04.921Z,15.90
2022-10-14T02:07:04.889Z,15.84
2022-10-14T02:08:04.855Z,15.80
2022-10-14T02:09:04.817Z,15.80
2022-10-14T02:10:04.805Z,15.79
2022-10-14T02:11:04.754Z,15.94
2022-10-14T02:12:04.715Z,15.94
2022-10-14T02:13:04.685Z,15.92
2022-10-14T02:14:04.652Z,15.84
2022-10-14T02:15:04.635Z,15.90
2022-10-14T02:16:04.585Z,15.83
2022-10-14T02:17:04.555Z,15.92
2022-10-14T02:18:04.523Z,15.90
2022-10-14T02:19:04.490Z,15.88
2022-10-14T02:20:04.455Z,15.82
2022-10-14T02:21:04.419Z,15.86
2022-10-14T02:22:04.381Z,15.88
2022-10-14T02:23:04.352Z,15.92
2022-10-14T02:24:04.325Z,15.91
2022-10-14T02:25:04.294Z,15.95
2022-10-14T02:26:04.254Z,15.90
2022-10-14T02:27:04.220Z,15.92
2022-10-14T02:28:04.189Z,15.83
2022-10-14T02:29:04.156Z,15.84
2022-10-14T02:30:04.122Z,15.83
2022-10-14T02:31:04.084Z,15.97
2022-10-14T02:32:04.054Z,15.90
2022-10-14T02:33:04.024Z,15.79
2022-10-14T02:34:03.988Z,15.94
2022-10-14T02:35:03.953Z,15.80
2022-10-14T02:36:03.948Z,15.98
2022-10-14T02:37:03.886Z,15.90
2022-10-14T02:38:03.851Z,15.90
2022-10-14T02:39:03.821Z,15.92
2022-10-14T02:40:03.784Z,15.91
2022-10-14T02:41:03.757Z,15.91
2022-10-14T02:42:03.721Z,15.92
2022-10-14T02:43:03.698Z,15.91
2022-10-14T02:44:03.653Z,15.97
2022-10-14T02:45:03.617Z,15.90
2022-10-14T02:46:03.586Z,15.91
2022-10-14T02:47:03.554Z,15.91
2022-10-14T02:48:03.521Z,15.90
2022-10-14T02:49:03.485Z,15.91
2022-10-14T02:50:03.460Z,15.91
2022-10-14T02:51:03.426Z,15.92
2022-10-14T02:52:03.390Z,15.92
2022-10-14T02:53:03.354Z,15.90
2022-10-14T02:54:03.322Z,15.92
2022-10-14T02:55:03.299Z,15.98
2022-10-14T02:56:03.255Z,15.91
2022-10-14T02:57:03.222Z,15.91
2022-10-14T02:58:03.195Z,15.98
2022-10-14T02:59:03.159Z,15.91
2022-10-14T03:00:03.120Z,15.90
2022-10-14T03:01:03.092Z,15.95
2022-10-14T03:02:03.137Z,15.91
2022-10-14T03:03:03.044Z,15.92
2022-10-14T03:04:02.989Z,16.02
2022-10-14T03:05:02.959Z,15.90
2022-10-14T03:06:02.922Z,15.88
2022-10-14T03:07:02.913Z,15.91
2022-10-14T03:08:02.857Z,15.88
2022-10-14T03:09:02.839Z,15.91
2022-10-14T03:10:02.799Z,15.95
2022-10-14T03:11:02.753Z,15.94
2022-10-14T03:12:02.720Z,15.92
2022-10-14T03:13:02.689Z,15.91
2022-10-14T03:14:02.669Z,15.94
2022-10-14T03:15:02.623Z,15.90
2022-10-14T03:16:02.591Z,15.88
2022-10-14T03:17:02.554Z,15.90
2022-10-14T03:18:02.528Z,15.97
2022-10-14T03:19:02.487Z,15.94
2022-10-14T03:20:02.462Z,15.95
2022-10-14T03:21:02.425Z,15.90
2022-10-14T03:22:02.390Z,15.92
2022-10-14T03:23:02.357Z,15.94
2022-10-14T03:24:02.331Z,15.90
2022-10-14T03:25:02.291Z,15.91
2022-10-14T03:26:02.256Z,15.91
2022-10-14T03:27:02.225Z,15.84
2022-10-14T03:28:02.188Z,15.95
2022-10-14T03:29:02.164Z,16.00
2022-10-14T03:30:02.126Z,15.88
2022-10-14T03:31:02.088Z,15.88
2022-10-14T03:32:02.058Z,15.94
2022-10-14T03:33:02.024Z,15.88
2022-10-14T03:34:01.990Z,15.91
2022-10-14T03:35:01.957Z,16.01
2022-10-14T03:36:01.924Z,15.83
2022-10-14T03:37:01.890Z,15.95
2022-10-14T03:38:01.856Z,15.95
2022-10-14T03:39:01.827Z,15.88
2022-10-14T03:40:01.794Z,15.92
2022-10-14T03:41:01.771Z,15.94
2022-10-14T03:42:01.726Z,15.90
2022-10-14T03:43:01.695Z,15.94
2022-10-14T03:44:01.660Z,15.92
2022-10-14T03:45:01.630Z,15.88
2022-10-14T03:46:01.593Z,15.90
2022-10-14T03:47:01.564Z,15.91
2022-10-14T03:48:01.533Z,15.95
2022-10-14T03:49:01.492Z,15.91
2022-10-14T03:50:01.457Z,15.95
2022-10-14T03:51:01.426Z,15.94
2022-10-14T03:52:01.392Z,16.01
2022-10-14T03:53:01.357Z,15.90
2022-10-14T03:54:01.330Z,15.91
2022-10-14T03:55:01.298Z,15.92
2022-10-14T03:56:01.290Z,15.86
2022-10-14T03:57:01.226Z,15.90
2022-10-14T03:58:01.195Z,15.88
2022-10-14T03:59:01.161Z,15.91
2022-10-14T04:00:01.127Z,15.94
2022-10-14T04:01:01.096Z,15.91
2022-10-14T04:02:01.143Z,15.91
2022-10-14T04:03:01.027Z,15.90
2022-10-14T04:04:01.001Z,15.91
2022-10-14T04:05:01.356Z,15.90
2022-10-14T04:06:00.930Z,15.97
2022-10-14T04:07:00.896Z,15.92
2022-10-14T04:08:00.862Z,16.02
2022-10-14T04:09:00.829Z,15.95
2022-10-14T04:10:00.795Z,16.02
2022-10-14T04:11:00.763Z,15.91
2022-10-14T04:12:00.793Z,15.91
2022-10-14T04:13:00.695Z,15.97
2022-10-14T04:14:00.665Z,15.98
2022-10-14T04:15:00.626Z,15.98
2022-10-14T04:16:00.594Z,15.90
2022-10-14T04:17:00.563Z,15.94
2022-10-14T04:18:00.530Z,16.00
2022-10-14T04:19:00.496Z,16.01
2022-10-14T04:20:00.462Z,15.95
2022-10-14T04:21:00.432Z,16.02
2022-10-14T04:22:00.397Z,16.01
2022-10-14T04:23:00.362Z,16.01
2022-10-14T04:24:03.706Z,15.98
2022-10-14T04:25:00.300Z,15.98
2022-10-14T04:26:00.266Z,16.01
2022-10-14T04:27:00.230Z,15.92
2022-10-14T04:28:00.202Z,16.01
2022-10-14T04:29:00.227Z,15.94
2022-10-14T04:30:00.149Z,15.97
2022-10-14T04:31:00.114Z,16.01
2022-10-14T04:32:00.070Z,15.98
2022-10-14T04:33:00.045Z,15.98
2022-10-14T04:34:00.001Z,15.98
2022-10-14T04:34:59.965Z,15.88
2022-10-14T04:35:59.933Z,16.00
2022-10-14T04:36:59.897Z,16.00
2022-10-14T04:37:59.872Z,15.98
2022-10-14T04:38:59.833Z,15.94
2022-10-14T04:39:59.812Z,15.91
2022-10-14T04:40:59.782Z,16.01
2022-10-14T04:41:59.752Z,16.01
2022-10-14T04:42:59.704Z,15.98
2022-10-14T04:43:59.670Z,16.02
2022-10-14T04:44:59.635Z,15.98
2022-10-14T04:45:59.599Z,16.04
2022-10-14T04:46:59.569Z,15.97
2022-10-14T04:47:59.534Z,15.98
2022-10-14T04:48:59.518Z,16.01
2022-10-14T04:49:59.466Z,16.01
2022-10-14T04:50:59.430Z,16.02
2022-10-14T04:51:59.409Z,16.00
2022-10-14T04:52:59.364Z,16.01
2022-10-14T04:53:59.337Z,15.97
2022-10-14T04:54:59.300Z,15.95
2022-10-14T04:55:59.266Z,16.05
2022-10-14T04:56:59.246Z,16.01
2022-10-14T04:57:59.209Z,16.04
2022-10-14T04:58:59.170Z,16.00
2022-10-14T04:59:59.140Z,16.02
2022-10-14T05:00:59.103Z,16.01
2022-10-14T05:01:59.115Z,15.97
2022-10-14T05:02:59.065Z,16.01
2022-10-14T05:03:59.011Z,16.00
2022-10-14T05:04:58.969Z,16.01
2022-10-14T05:05:58.935Z,16.02
2022-10-14T05:06:58.907Z,16.05
2022-10-14T05:07:58.882Z,15.97
2022-10-14T05:08:58.836Z,15.97
2022-10-14T05:09:58.807Z,16.04
2022-10-14T05:10:58.773Z,16.02
2022-10-14T05:11:58.733Z,16.01
2022-10-14T05:12:58.789Z,15.90
2022-10-14T05:13:58.678Z,15.92
2022-10-14T05:14:58.640Z,15.97
2022-10-14T05:15:58.672Z,16.00
2022-10-14T05:16:58.570Z,15.97
2022-10-14T05:17:58.539Z,16.01
2022-10-14T05:18:58.507Z,15.95
2022-10-14T05:19:58.476Z,15.91
2022-10-14T05:20:58.454Z,15.95
2022-10-14T05:21:58.407Z,16.02
2022-10-14T05:22:58.370Z,15.98
2022-10-14T05:23:58.347Z,15.91
2022-10-14T05:24:58.308Z,16.00
2022-10-14T05:25:58.270Z,15.94
2022-10-14T05:26:58.239Z,15.95
2022-10-14T05:27:58.214Z,16.02
2022-10-14T05:28:58.244Z,16.02
2022-10-14T05:29:58.137Z,15.98
2022-10-14T05:30:58.129Z,15.98
2022-10-14T05:31:58.078Z,15.86
2022-10-14T05:32:58.045Z,15.98
2022-10-14T05:33:58.008Z,15.90
2022-10-14T05:34:58.069Z,15.86
2022-10-14T05:35:59.374Z,16.02
2022-10-14T05:36:57.920Z,15.92
2022-10-14T05:38:03.280Z,15.92
2022-10-14T05:38:57.895Z,16.01
2022-10-14T05:39:57.811Z,15.91
2022-10-14T05:40:57.773Z,15.97
2022-10-14T05:41:57.750Z,15.98
2022-10-14T05:42:57.706Z,15.97
2022-10-14T05:43:57.675Z,16.09
2022-10-14T05:44:57.644Z,16.02
2022-10-14T05:45:57.609Z,16.01
2022-10-14T05:46:57.576Z,15.97
2022-10-14T05:47:57.546Z,15.98
2022-10-14T05:48:57.512Z,15.97
2022-10-14T05:49:57.480Z,16.08
2022-10-14T05:50:57.449Z,16.04
2022-10-14T05:51:57.410Z,16.01
2022-10-14T05:52:57.377Z,16.08
2022-10-14T05:53:57.342Z,15.98
2022-10-14T05:54:57.316Z,16.02
2022-10-14T05:55:57.281Z,16.01
2022-10-14T05:56:57.281Z,16.04
2022-10-14T05:57:57.211Z,16.05
2022-10-14T05:58:57.200Z,16.00
2022-10-14T05:59:57.166Z,15.98
2022-10-14T06:00:57.121Z,16.05
2022-10-14T06:01:57.085Z,16.05
2022-10-14T06:02:57.073Z,16.02
2022-10-14T06:03:57.009Z,16.02
2022-10-14T06:04:56.984Z,15.94
2022-10-14T06:05:56.951Z,16.00
2022-10-14T06:06:56.917Z,16.01
2022-10-14T06:07:56.884Z,16.00
2022-10-14T06:08:56.852Z,16.04
2022-10-14T06:09:56.817Z,15.98
2022-10-14T06:10:56.785Z,16.00
2022-10-14T06:11:56.752Z,15.94
2022-10-14T06:12:56.733Z,16.00
2022-10-14T06:13:56.681Z,15.92
2022-10-14T06:14:56.655Z,15.94
2022-10-14T06:15:56.617Z,16.01
2022-10-14T06:16:56.582Z,16.02
2022-10-14T06:17:56.553Z,16.00
2022-10-14T06:18:56.512Z,16.00
2022-10-14T06:19:56.540Z,15.92
2022-10-14T06:20:56.451Z,15.94
2022-10-14T06:21:56.419Z,15.88
2022-10-14T06:22:56.381Z,15.86
2022-10-14T06:23:56.366Z,15.92
2022-10-14T06:25:00.356Z,16.01
2022-10-14T06:25:56.284Z,15.88
2022-10-14T06:26:56.256Z,15.84
2022-10-14T06:27:56.248Z,15.95
2022-10-14T06:28:56.245Z,15.90
2022-10-14T06:29:56.154Z,15.97
2022-10-14T06:30:56.117Z,15.92
2022-10-14T06:31:56.093Z,15.90
2022-10-14T06:32:56.050Z,16.00
2022-10-14T06:33:56.019Z,15.88
2022-10-14T06:34:55.985Z,15.91
2022-10-14T06:35:55.960Z,15.84
2022-10-14T06:36:59.874Z,15.82
2022-10-14T06:37:55.881Z,15.94
2022-10-14T06:38:55.855Z,15.94
2022-10-14T06:39:55.816Z,15.88
2022-10-14T06:40:55.808Z,15.95
2022-10-14T06:41:55.751Z,15.90
2022-10-14T06:42:55.720Z,15.82
2022-10-14T06:43:55.733Z,15.84
2022-10-14T06:44:55.664Z,15.94
2022-10-14T06:45:55.620Z,15.92
2022-10-14T06:46:55.587Z,15.77
2022-10-14T06:47:55.552Z,15.80
2022-10-14T06:48:55.517Z,15.86
2022-10-14T06:49:55.487Z,15.91
2022-10-14T06:50:55.453Z,15.90
2022-10-14T06:51:55.507Z,15.91
2022-10-14T06:52:55.390Z,15.95
2022-10-14T06:53:55.349Z,15.91
2022-10-14T06:54:55.318Z,15.92
2022-10-14T06:55:55.305Z,15.92
2022-10-14T06:56:55.250Z,15.91
2022-10-14T06:57:55.216Z,15.95
2022-10-14T06:58:55.186Z,15.88
2022-10-14T06:59:55.152Z,16.01
2022-10-14T07:00:55.194Z,15.98
2022-10-14T07:01:55.165Z,16.01
2022-10-14T07:02:55.052Z,15.92
2022-10-14T07:03:56.734Z,16.00
2022-10-14T07:04:55.033Z,16.04
2022-10-14T07:05:54.955Z,16.04
2022-10-14T07:06:54.916Z,16.02
2022-10-14T07:07:54.966Z,16.00
2022-10-14T07:08:54.885Z,15.97
2022-10-14T07:09:54.854Z,16.04
2022-10-14T07:10:54.795Z,16.02
2022-10-14T07:11:54.752Z,16.09
2022-10-14T07:12:54.718Z,15.98
2022-10-14T07:13:54.687Z,16.05
2022-10-14T07:14:54.649Z,16.02
2022-10-14T07:15:54.619Z,16.08
2022-10-14T07:16:54.587Z,16.09
2022-10-14T07:17:54.552Z,16.09
2022-10-14T07:18:54.522Z,16.12
2022-10-14T07:19:54.492Z,16.00
2022-10-14T07:20:54.459Z,16.13
2022-10-14T07:21:54.424Z,16.13
2022-10-14T07:22:54.385Z,16.13
2022-10-14T07:23:54.359Z,16.13
2022-10-14T07:24:54.377Z,16.17
2022-10-14T07:25:54.285Z,16.16
2022-10-14T07:26:54.285Z,16.12
2022-10-14T07:27:54.220Z,16.15
2022-10-14T07:28:54.239Z,16.20
2022-10-14T07:29:54.189Z,16.17
2022-10-14T07:30:54.119Z,16.16
2022-10-14T07:31:54.102Z,16.13
2022-10-14T07:32:54.056Z,16.15
2022-10-14T07:33:54.022Z,16.09
2022-10-14T07:34:54.031Z,16.08
2022-10-14T07:35:53.955Z,16.16
2022-10-14T07:36:53.921Z,16.13
2022-10-14T07:37:53.904Z,16.12
2022-10-14T07:38:53.855Z,16.21
2022-10-14T07:39:53.827Z,16.12
2022-10-14T07:40:53.785Z,16.23
2022-10-14T07:41:53.758Z,16.15
2022-10-14T07:42:53.718Z,16.12
2022-10-14T07:43:53.688Z,16.13
2022-10-14T07:44:53.654Z,16.15
2022-10-14T07:45:53.623Z,16.16
2022-10-14T07:46:53.594Z,16.09
2022-10-14T07:47:53.556Z,16.31
2022-10-14T07:48:57.181Z,16.32
2022-10-14T07:49:53.490Z,16.33
2022-10-14T07:50:53.459Z,16.29
2022-10-14T07:51:53.436Z,16.26
2022-10-14T07:52:56.607Z,16.32
2022-10-14T07:53:53.436Z,16.35
2022-10-14T07:54:53.323Z,16.33
2022-10-14T07:55:53.308Z,16.43
2022-10-14T07:56:53.260Z,16.47
2022-10-14T07:57:53.224Z,16.43
2022-10-14T07:58:53.196Z,16.51
2022-10-14T07:59:53.161Z,16.43
2022-10-14T08:00:53.126Z,16.41
2022-10-14T08:01:53.232Z,16.49
2022-10-14T08:02:53.069Z,16.39
2022-10-14T08:03:53.028Z,16.50
2022-10-14T08:04:53.044Z,16.39
2022-10-14T08:05:52.963Z,16.47
2022-10-14T08:06:52.936Z,16.50
2022-10-14T08:07:52.893Z,16.49
2022-10-14T08:08:52.871Z,16.53
2022-10-14T08:09:52.830Z,16.50
2022-10-14T08:10:52.801Z,16.51
2022-10-14T08:11:52.775Z,16.61
2022-10-14T08:12:52.760Z,16.60
2022-10-14T08:13:52.711Z,16.56
2022-10-14T08:14:52.679Z,16.66
2022-10-14T08:15:52.631Z,16.69
2022-10-14T08:16:52.602Z,16.66
2022-10-14T08:17:52.565Z,16.69
2022-10-14T08:18:52.537Z,16.71
2022-10-14T08:19:52.550Z,16.74
2022-10-14T08:20:52.482Z,16.66
2022-10-14T08:21:52.433Z,16.74
2022-10-14T08:22:52.403Z,16.76
2022-10-14T08:23:52.378Z,16.76
2022-10-14T08:24:52.335Z,16.66
2022-10-14T08:25:52.300Z,16.68
2022-10-14T08:26:52.271Z,16.76
2022-10-14T08:27:52.238Z,16.78
2022-10-14T08:28:52.292Z,16.84
2022-10-14T08:29:52.172Z,16.91
2022-10-14T08:30:52.158Z,16.93
2022-10-14T08:31:52.105Z,16.90
2022-10-14T08:32:52.070Z,17.02
2022-10-14T08:33:52.072Z,16.96
2022-10-14T08:34:52.011Z,16.94
2022-10-14T08:35:54.217Z,17.05
2022-10-14T08:36:51.947Z,17.06
2022-10-14T08:37:51.911Z,17.01
2022-10-14T08:38:51.880Z,17.01
2022-10-14T08:39:51.853Z,17.05
2022-10-14T08:40:54.929Z,17.11
2022-10-14T08:41:51.782Z,17.12
2022-10-14T08:42:51.753Z,17.15
2022-10-14T08:43:51.811Z,16.94
2022-10-14T08:44:51.678Z,16.99
2022-10-14T08:45:51.651Z,16.99
2022-10-14T08:46:52.371Z,17.09
2022-10-14T08:47:51.582Z,17.05
2022-10-14T08:48:51.555Z,17.06
2022-10-14T08:49:51.522Z,17.09
2022-10-14T08:50:51.490Z,17.11
2022-10-14T08:51:51.458Z,17.05
2022-10-14T08:52:51.420Z,17.14
2022-10-14T08:53:51.390Z,17.12
2022-10-14T08:54:51.361Z,17.04
2022-10-14T08:55:51.327Z,17.16
2022-10-14T08:56:51.304Z,17.14
2022-10-14T08:57:51.258Z,17.24
2022-10-14T08:58:51.230Z,17.27
2022-10-14T08:59:51.195Z,17.20
2022-10-14T09:00:51.173Z,17.24
2022-10-14T09:01:51.135Z,17.38
2022-10-14T09:02:51.093Z,17.24
2022-10-14T09:03:51.096Z,17.24
2022-10-14T09:04:51.032Z,17.24
2022-10-14T09:05:50.998Z,17.24
2022-10-14T09:06:50.970Z,17.24
2022-10-14T09:08:50.908Z,17.31
2022-10-14T09:09:50.883Z,17.23
2022-10-14T09:10:50.837Z,17.36
2022-10-14T09:11:50.804Z,17.38
2022-10-14T09:12:50.777Z,17.33
2022-10-14T09:13:50.743Z,17.34
2022-10-14T09:14:50.705Z,17.31
2022-10-14T09:15:50.674Z,17.39
2022-10-14T09:16:53.475Z,17.31
2022-10-14T09:17:50.754Z,17.34
2022-10-14T09:18:53.855Z,17.27
2022-10-14T09:19:50.548Z,17.33
2022-10-14T09:20:50.514Z,17.36
2022-10-14T09:21:52.950Z,17.33
2022-10-14T09:23:50.414Z,17.31
2022-10-14T09:24:50.386Z,17.38
2022-10-14T09:25:50.347Z,17.46
2022-10-14T09:26:50.380Z,17.48
2022-10-14T09:27:50.290Z,17.42
2022-10-14T09:28:50.330Z,17.48
2022-10-14T09:29:50.232Z,17.36
2022-10-14T09:30:50.192Z,17.44
2022-10-14T09:31:50.158Z,17.51
2022-10-14T09:32:50.136Z,17.54
2022-10-14T09:33:50.092Z,17.54
2022-10-14T09:34:50.059Z,17.60
2022-10-14T09:35:50.101Z,17.51
2022-10-14T09:36:50.037Z,17.60
2022-10-14T09:37:49.966Z,17.65
2022-10-14T09:38:49.931Z,17.60
2022-10-14T09:39:49.905Z,17.60
2022-10-14T09:40:49.866Z,17.67
2022-10-14T09:41:49.830Z,17.59
2022-10-14T09:42:49.806Z,17.68
2022-10-14T09:43:49.774Z,17.70
2022-10-14T09:44:49.735Z,17.68
2022-10-14T09:45:49.706Z,17.67
2022-10-14T09:46:49.672Z,17.63
2022-10-14T09:47:49.697Z,17.68
2022-10-14T09:48:49.605Z,17.59
2022-10-14T09:49:49.585Z,17.64
2022-10-14T09:50:49.550Z,17.71
2022-10-14T09:51:49.510Z,17.68
2022-10-14T09:52:49.480Z,17.71
2022-10-14T09:53:49.446Z,17.76
2022-10-14T09:55:49.381Z,17.72
2022-10-14T09:56:49.349Z,17.76
2022-10-14T09:57:49.322Z,17.76
2022-10-14T09:58:49.287Z,17.72
2022-10-14T09:59:49.253Z,17.76
2022-10-14T10:00:49.280Z,17.68
2022-10-14T10:01:49.191Z,17.70
2022-10-14T10:02:49.156Z,17.71
2022-10-14T10:03:49.296Z,17.74
2022-10-14T10:04:49.090Z,17.72
2022-10-14T10:05:49.071Z,17.79
2022-10-14T10:06:49.037Z,17.79
2022-10-14T10:07:49.006Z,17.78
2022-10-14T10:08:48.966Z,17.76
2022-10-14T10:09:48.939Z,17.78
2022-10-14T10:10:48.905Z,17.83
2022-10-14T10:11:48.871Z,17.83
2022-10-14T10:12:48.835Z,17.82
2022-10-14T10:13:48.801Z,17.87
2022-10-14T10:14:48.772Z,17.89
2022-10-14T10:15:48.798Z,17.87
2022-10-14T10:16:48.702Z,17.83
2022-10-14T10:17:48.673Z,17.83
2022-10-14T10:18:48.643Z,17.83
2022-10-14T10:19:48.611Z,17.89
2022-10-14T10:20:48.576Z,17.82
2022-10-14T10:21:48.554Z,17.97
2022-10-14T10:22:48.514Z,17.87
2022-10-14T10:23:48.480Z,17.90
2022-10-14T10:24:48.458Z,17.87
2022-10-14T10:25:48.419Z,17.82
2022-10-14T10:26:48.384Z,17.83
2022-10-14T10:27:48.349Z,17.82
2022-10-14T10:28:48.396Z,17.85
2022-10-14T10:29:48.288Z,17.89
2022-10-14T10:30:48.257Z,17.86
2022-10-14T10:31:48.230Z,17.85
2022-10-14T10:32:48.205Z,17.87
2022-10-14T10:33:48.159Z,17.95
2022-10-14T10:34:48.130Z,17.90
2022-10-14T10:35:48.109Z,17.98
2022-10-14T10:36:48.071Z,17.98
2022-10-14T10:37:48.030Z,17.95
2022-10-14T10:38:48.000Z,18.03
2022-10-14T10:39:47.974Z,18.03
2022-10-14T10:40:47.950Z,17.97
2022-10-14T10:41:47.904Z,18.05
2022-10-14T10:42:47.881Z,18.13
2022-10-14T10:43:47.837Z,18.03
2022-10-14T10:44:47.825Z,18.16
2022-10-14T10:45:47.794Z,18.18
2022-10-14T10:46:47.765Z,18.10
2022-10-14T10:47:47.731Z,18.13
2022-10-14T10:48:47.698Z,18.08
2022-10-14T10:49:47.700Z,18.19
2022-10-14T10:50:47.645Z,18.16
2022-10-14T10:51:47.661Z,18.05
2022-10-14T10:52:47.574Z,18.16
2022-10-14T10:53:47.547Z,18.19
2022-10-14T10:54:47.504Z,18.29
2022-10-14T10:56:47.443Z,18.31
2022-10-14T10:57:47.405Z,18.26
2022-10-14T10:58:47.381Z,18.34
2022-10-14T10:59:47.347Z,18.29
2022-10-14T11:00:47.370Z,18.18
2022-10-14T11:01:47.316Z,18.26
2022-10-14T11:02:47.258Z,18.31
2022-10-14T11:03:47.216Z,18.23
2022-10-14T11:04:47.184Z,18.33
2022-10-14T11:05:47.151Z,18.22
2022-10-14T11:06:47.124Z,18.19
2022-10-14T11:07:47.135Z,18.33
2022-10-14T11:08:47.060Z,18.34
2022-10-14T11:09:47.030Z,18.33
2022-10-14T11:10:46.993Z,18.31
2022-10-14T11:11:46.965Z,18.33
2022-10-14T11:12:46.934Z,18.29
2022-10-14T11:13:46.896Z,18.34
2022-10-14T11:14:46.879Z,18.38
2022-10-14T11:15:46.838Z,18.37
2022-10-14T11:16:46.808Z,18.44
2022-10-14T11:17:46.774Z,18.50
2022-10-14T11:18:46.746Z,18.53
2022-10-14T11:19:46.709Z,18.56
2022-10-14T11:20:46.677Z,18.58
2022-10-14T11:21:46.695Z,18.56
2022-10-14T11:22:46.622Z,18.58
2022-10-14T11:23:46.584Z,18.55
2022-10-14T11:24:46.558Z,18.55
2022-10-14T11:25:46.528Z,18.66
2022-10-14T11:26:46.495Z,18.52
2022-10-14T11:27:46.467Z,18.66
2022-10-14T11:28:46.468Z,18.59
2022-10-14T11:29:46.388Z,18.55
2022-10-14T11:30:46.347Z,18.60
2022-10-14T11:31:46.326Z,18.58
2022-10-14T11:32:46.283Z,18.56
2022-10-14T11:33:46.260Z,18.60
2022-10-14T11:34:46.228Z,18.66
2022-10-14T11:35:46.194Z,18.59
2022-10-14T11:36:46.162Z,18.55
2022-10-14T11:37:46.125Z,18.65
2022-10-14T11:38:46.096Z,18.56
2022-10-14T11:39:46.071Z,18.70
2022-10-14T11:40:46.035Z,18.71
2022-10-14T11:41:46.005Z,18.78
2022-10-14T11:42:45.969Z,18.75
2022-10-14T11:43:45.939Z,18.84
2022-10-14T11:44:45.911Z,18.80
2022-10-14T11:45:45.878Z,18.92
2022-10-14T11:46:45.846Z,18.93
2022-10-14T11:47:45.812Z,18.93
2022-10-14T11:48:45.781Z,18.93
2022-10-14T11:49:45.752Z,18.95
2022-10-14T11:50:45.717Z,18.96
2022-10-14T11:51:45.708Z,18.90
2022-10-14T11:52:45.654Z,18.88
2022-10-14T11:53:45.626Z,18.78
2022-10-14T11:54:45.595Z,18.81
2022-10-14T11:55:45.580Z,18.86
2022-10-14T11:56:45.531Z,18.74
2022-10-14T11:57:45.551Z,18.88
2022-10-14T11:58:45.470Z,18.75
2022-10-14T11:59:45.453Z,18.83
2022-10-14T12:00:45.416Z,18.88
2022-10-14T12:01:45.379Z,18.78
2022-10-14T12:02:45.417Z,18.77
2022-10-14T12:03:45.312Z,18.74
2022-10-14T12:04:45.279Z,18.74
2022-10-14T12:05:45.263Z,18.78
2022-10-14T12:06:45.219Z,18.74
2022-10-14T12:07:45.189Z,18.75
2022-10-14T12:08:45.155Z,18.75
2022-10-14T12:09:45.133Z,18.78
2022-10-14T12:10:45.095Z,18.74
2022-10-14T12:11:45.084Z,18.63
2022-10-14T12:12:45.045Z,18.70
2022-10-14T12:13:45.003Z,18.77
2022-10-14T12:14:44.987Z,18.75
2022-10-14T12:15:44.941Z,18.66
2022-10-14T12:16:44.903Z,18.63
2022-10-14T12:17:45.331Z,18.66
2022-10-14T12:18:44.894Z,18.56
2022-10-14T12:19:44.810Z,18.62
2022-10-14T12:20:44.907Z,18.62
2022-10-14T12:21:48.198Z,18.63
2022-10-14T12:22:44.718Z,18.56
2022-10-14T12:23:44.714Z,18.62
2022-10-14T12:24:44.650Z,18.59
2022-10-14T12:25:44.626Z,18.56
2022-10-14T12:26:44.615Z,18.59
2022-10-14T12:27:44.562Z,18.62
2022-10-14T12:28:44.559Z,18.59
2022-10-14T12:29:44.497Z,18.73
2022-10-14T12:30:44.466Z,18.73
2022-10-14T12:31:44.434Z,18.74
2022-10-14T12:32:44.400Z,18.75
2022-10-14T12:33:44.369Z,18.73
2022-10-14T12:34:44.338Z,18.74
2022-10-14T12:35:44.307Z,18.83
2022-10-14T12:36:44.279Z,18.81
2022-10-14T12:37:44.319Z,18.83
2022-10-14T12:38:44.212Z,18.88
2022-10-14T12:39:44.185Z,18.81
2022-10-14T12:40:44.174Z,18.90
2022-10-14T12:41:44.120Z,18.90
2022-10-14T12:42:44.210Z,18.92
2022-10-14T12:43:44.055Z,18.95
2022-10-14T12:44:44.028Z,18.92
2022-10-14T12:45:44.010Z,18.93
2022-10-14T12:46:43.963Z,18.92
2022-10-14T12:47:43.937Z,18.96
2022-10-14T12:48:43.902Z,18.98
2022-10-14T12:49:43.867Z,18.90
2022-10-14T12:50:43.834Z,18.95
2022-10-14T12:51:43.813Z,18.90
2022-10-14T12:52:43.777Z,18.89
2022-10-14T12:53:43.745Z,18.96
2022-10-14T12:54:43.754Z,18.96
2022-10-14T12:55:43.682Z,18.93
2022-10-14T12:56:43.644Z,18.93
2022-10-14T12:57:43.631Z,18.93
2022-10-14T12:58:43.587Z,18.93
2022-10-14T12:59:43.579Z,18.93
2022-10-14T13:00:43.522Z,18.98
2022-10-14T13:01:43.536Z,18.95
2022-10-14T13:02:43.468Z,18.92
2022-10-14T13:03:43.428Z,18.90
2022-10-14T13:04:43.406Z,18.95
2022-10-14T13:05:43.368Z,18.98
2022-10-14T13:06:43.336Z,19.04
2022-10-14T13:07:43.717Z,19.00
2022-10-14T13:08:43.288Z,19.08
2022-10-14T13:09:43.245Z,19.02
2022-10-14T13:10:46.468Z,19.04
2022-10-14T13:11:43.179Z,19.08
2022-10-14T13:12:43.152Z,19.11
2022-10-14T13:13:43.119Z,19.11
2022-10-14T13:14:43.086Z,19.11
2022-10-14T13:15:43.058Z,19.11
2022-10-14T13:16:43.028Z,19.15
2022-10-14T13:17:42.991Z,19.15
2022-10-14T13:18:42.962Z,19.09
2022-10-14T13:19:42.931Z,19.08
2022-10-14T13:20:42.900Z,19.11
2022-10-14T13:21:42.888Z,19.09
2022-10-14T13:22:42.839Z,19.16
2022-10-14T13:23:42.804Z,19.18
2022-10-14T13:24:42.807Z,19.18
2022-10-14T13:25:42.765Z,19.30
2022-10-14T13:26:42.714Z,19.22
2022-10-14T13:27:42.683Z,19.27
2022-10-14T13:28:42.755Z,19.26
2022-10-14T13:29:42.620Z,19.34